sensor_id;sensor_type;location;lat;lon;timestamp;pressure;altitude;pressure_sealevel;temperature;humidity
70437;BME280;57877;39.750;-104.894;2023-02-13T00:01:00;83664.79;;;8.64;17.79
70437;BME280;57877;39.750;-104.894;2023-02-13T00:03:26;83663.71;;;8.24;17.91
70437;BME280;57877;39.750;-104.894;2023-02-13T00:05:51;83662.82;;;8.03;18.23
70437;BME280;57877;39.750;-104.894;2023-02-13T00:08:16;83664.02;;;7.83;18.19
70437;BME280;57877;39.750;-104.894;2023-02-13T00:10:41;83663.72;;;7.96;18.38
70437;BME280;57877;39.750;-104.894;2023-02-13T00:13:06;83661.86;;;7.88;18.44
70437;BME280;57877;39.750;-104.894;2023-02-13T00:15:31;83661.98;;;8.08;18.33
70437;BME280;57877;39.750;-104.894;2023-02-13T00:17:56;83663.09;;;8.23;18.40
70437;BME280;57877;39.750;-104.894;2023-02-13T00:20:22;83662.53;;;8.05;18.36
70437;BME280;57877;39.750;-104.894;2023-02-13T00:22:46;83664.07;;;8.21;18.16
70437;BME280;57877;39.750;-104.894;2023-02-13T00:25:12;83664.75;;;7.95;18.31
70437;BME280;57877;39.750;-104.894;2023-02-13T00:27:36;83663.82;;;7.82;18.53
70437;BME280;57877;39.750;-104.894;2023-02-13T00:30:02;83660.63;;;8.14;18.46
70437;BME280;57877;39.750;-104.894;2023-02-13T00:32:26;83661.28;;;7.84;18.58
70437;BME280;57877;39.750;-104.894;2023-02-13T00:34:52;83662.01;;;7.75;18.59
70437;BME280;57877;39.750;-104.894;2023-02-13T00:37:16;83659.67;;;7.64;18.71
70437;BME280;57877;39.750;-104.894;2023-02-13T00:39:41;83657.91;;;7.56;18.67
70437;BME280;57877;39.750;-104.894;2023-02-13T00:42:06;83658.13;;;7.74;18.76
70437;BME280;57877;39.750;-104.894;2023-02-13T00:44:31;83659.28;;;7.02;18.99
70437;BME280;57877;39.750;-104.894;2023-02-13T00:46:56;83656.28;;;7.27;18.92
70437;BME280;57877;39.750;-104.894;2023-02-13T00:49:22;83657.82;;;6.86;19.37
70437;BME280;57877;39.750;-104.894;2023-02-13T00:51:47;83657.95;;;7.08;19.42
70437;BME280;57877;39.750;-104.894;2023-02-13T00:54:11;83655.36;;;6.53;19.83
70437;BME280;57877;39.750;-104.894;2023-02-13T00:56:37;83652.77;;;6.31;20.13
70437;BME280;57877;39.750;-104.894;2023-02-13T00:59:02;83653.75;;;6.46;19.90
70437;BME280;57877;39.750;-104.894;2023-02-13T01:01:27;83656.11;;;6.91;19.70
70437;BME280;57877;39.750;-104.894;2023-02-13T01:03:52;83657.09;;;6.42;19.73
70437;BME280;57877;39.750;-104.894;2023-02-13T01:06:17;83654.76;;;6.59;19.85
70437;BME280;57877;39.750;-104.894;2023-02-13T01:08:42;83654.06;;;6.46;19.70
70437;BME280;57877;39.750;-104.894;2023-02-13T01:11:07;83654.86;;;6.41;19.85
70437;BME280;57877;39.750;-104.894;2023-02-13T01:13:32;83654.97;;;5.81;20.14
70437;BME280;57877;39.750;-104.894;2023-02-13T01:15:58;83658.73;;;6.26;19.86
70437;BME280;57877;39.750;-104.894;2023-02-13T01:18:23;83660.23;;;6.02;19.89
70437;BME280;57877;39.750;-104.894;2023-02-13T01:20:56;83657.37;;;6.29;20.02
70437;BME280;57877;39.750;-104.894;2023-02-13T01:23:13;83656.57;;;6.45;19.73
70437;BME280;57877;39.750;-104.894;2023-02-13T01:25:40;83659.68;;;5.77;20.18
70437;BME280;57877;39.750;-104.894;2023-02-13T01:28:03;83659.47;;;5.70;20.32
70437;BME280;57877;39.750;-104.894;2023-02-13T01:30:28;83661.84;;;5.81;20.25
70437;BME280;57877;39.750;-104.894;2023-02-13T01:32:54;83662.33;;;5.32;20.53
70437;BME280;57877;39.750;-104.894;2023-02-13T01:35:18;83664.59;;;5.03;20.87
70437;BME280;57877;39.750;-104.894;2023-02-13T01:37:43;83661.54;;;5.50;20.83
70437;BME280;57877;39.750;-104.894;2023-02-13T01:40:12;83663.49;;;5.08;20.93
70437;BME280;57877;39.750;-104.894;2023-02-13T01:42:35;83664.05;;;5.65;20.73
70437;BME280;57877;39.750;-104.894;2023-02-13T01:45:01;83663.69;;;4.74;21.17
70437;BME280;57877;39.750;-104.894;2023-02-13T01:47:27;83664.33;;;5.37;21.01
70437;BME280;57877;39.750;-104.894;2023-02-13T01:49:59;83666.96;;;5.06;21.07
70437;BME280;57877;39.750;-104.894;2023-02-13T01:52:16;83663.46;;;5.31;21.06
70437;BME280;57877;39.750;-104.894;2023-02-13T01:54:41;83657.99;;;5.21;21.43
70437;BME280;57877;39.750;-104.894;2023-02-13T01:57:09;83653.14;;;4.31;21.92
70437;BME280;57877;39.750;-104.894;2023-02-13T01:59:36;83650.98;;;4.65;21.92
70437;BME280;57877;39.750;-104.894;2023-02-13T02:01:56;83650.84;;;5.05;21.70
70437;BME280;57877;39.750;-104.894;2023-02-13T02:04:23;83651.83;;;4.77;21.66
70437;BME280;57877;39.750;-104.894;2023-02-13T02:06:48;83653.02;;;5.16;21.52
70437;BME280;57877;39.750;-104.894;2023-02-13T02:09:15;83649.59;;;5.05;21.65
70437;BME280;57877;39.750;-104.894;2023-02-13T02:11:41;83648.13;;;4.88;21.73
70437;BME280;57877;39.750;-104.894;2023-02-13T02:14:02;83647.21;;;5.57;21.45
70437;BME280;57877;39.750;-104.894;2023-02-13T02:16:26;83648.46;;;5.06;21.84
70437;BME280;57877;39.750;-104.894;2023-02-13T02:18:52;83649.00;;;5.07;21.84
70437;BME280;57877;39.750;-104.894;2023-02-13T02:26:21;83646.10;;;5.09;22.16
70437;BME280;57877;39.750;-104.894;2023-02-13T02:33:30;83646.03;;;4.96;22.38
70437;BME280;57877;39.750;-104.894;2023-02-13T02:35:55;83645.18;;;5.20;22.17
70437;BME280;57877;39.750;-104.894;2023-02-13T02:38:25;83644.11;;;5.46;22.23
70437;BME280;57877;39.750;-104.894;2023-02-13T02:40:46;83644.05;;;4.94;22.59
70437;BME280;57877;39.750;-104.894;2023-02-13T02:43:12;83646.52;;;4.91;22.83
70437;BME280;57877;39.750;-104.894;2023-02-13T02:45:34;83645.83;;;5.14;22.84
70437;BME280;57877;39.750;-104.894;2023-02-13T02:47:58;83649.14;;;4.70;22.87
70437;BME280;57877;39.750;-104.894;2023-02-13T02:50:28;83650.09;;;4.62;23.25
70437;BME280;57877;39.750;-104.894;2023-02-13T02:52:53;83649.69;;;4.74;23.33
70437;BME280;57877;39.750;-104.894;2023-02-13T02:55:18;83653.60;;;4.19;23.47
70437;BME280;57877;39.750;-104.894;2023-02-13T02:57:38;83652.68;;;4.68;23.55
70437;BME280;57877;39.750;-104.894;2023-02-13T02:59:59;83652.84;;;4.51;23.79
70437;BME280;57877;39.750;-104.894;2023-02-13T03:02:24;83651.37;;;4.08;24.13
70437;BME280;57877;39.750;-104.894;2023-02-13T03:04:51;83651.86;;;3.80;24.63
70437;BME280;57877;39.750;-104.894;2023-02-13T03:07:16;83648.61;;;3.62;24.93
70437;BME280;57877;39.750;-104.894;2023-02-13T03:09:42;83649.42;;;2.76;26.29
70437;BME280;57877;39.750;-104.894;2023-02-13T03:12:06;83647.89;;;2.35;26.73
70437;BME280;57877;39.750;-104.894;2023-02-13T03:14:29;83651.31;;;1.81;27.36
70437;BME280;57877;39.750;-104.894;2023-02-13T03:16:56;83653.17;;;2.04;27.58
70437;BME280;57877;39.750;-104.894;2023-02-13T03:19:27;83652.25;;;2.52;27.45
70437;BME280;57877;39.750;-104.894;2023-02-13T03:21:49;83652.85;;;2.44;27.73
70437;BME280;57877;39.750;-104.894;2023-02-13T03:24:16;83650.56;;;2.07;28.26
70437;BME280;57877;39.750;-104.894;2023-02-13T03:26:41;83649.65;;;2.84;27.63
70437;BME280;57877;39.750;-104.894;2023-02-13T03:29:07;83655.67;;;1.31;29.52
70437;BME280;57877;39.750;-104.894;2023-02-13T03:31:31;83650.58;;;2.16;28.70
70437;BME280;57877;39.750;-104.894;2023-02-13T03:33:56;83653.40;;;1.84;29.14
70437;BME280;57877;39.750;-104.894;2023-02-13T03:36:19;83653.81;;;2.01;28.70
70437;BME280;57877;39.750;-104.894;2023-02-13T03:38:45;83653.17;;;2.54;28.26
70437;BME280;57877;39.750;-104.894;2023-02-13T03:41:10;83651.57;;;2.97;27.78
70437;BME280;57877;39.750;-104.894;2023-02-13T03:43:36;83655.27;;;1.79;28.87
70437;BME280;57877;39.750;-104.894;2023-02-13T03:45:56;83652.61;;;2.27;28.61
70437;BME280;57877;39.750;-104.894;2023-02-13T03:48:24;83654.41;;;2.57;27.93
70437;BME280;57877;39.750;-104.894;2023-02-13T03:50:45;83654.72;;;2.76;28.03
70437;BME280;57877;39.750;-104.894;2023-02-13T03:53:12;83651.72;;;2.74;27.67
70437;BME280;57877;39.750;-104.894;2023-02-13T03:55:37;83650.12;;;2.17;28.25
70437;BME280;57877;39.750;-104.894;2023-02-13T03:58:03;83649.41;;;2.76;28.43
70437;BME280;57877;39.750;-104.894;2023-02-13T04:00:27;83645.13;;;2.93;28.20
70437;BME280;57877;39.750;-104.894;2023-02-13T04:02:56;83644.07;;;2.46;28.44
70437;BME280;57877;39.750;-104.894;2023-02-13T04:05:20;83643.76;;;2.28;28.92
70437;BME280;57877;39.750;-104.894;2023-02-13T04:07:41;83642.17;;;2.17;29.07
70437;BME280;57877;39.750;-104.894;2023-02-13T04:10:09;83636.28;;;2.07;29.01
70437;BME280;57877;39.750;-104.894;2023-02-13T04:12:38;83632.17;;;2.24;28.84
70437;BME280;57877;39.750;-104.894;2023-02-13T04:15:00;83632.65;;;2.24;29.30
70437;BME280;57877;39.750;-104.894;2023-02-13T04:17:24;83630.08;;;2.17;29.99
70437;BME280;57877;39.750;-104.894;2023-02-13T04:19:46;83625.26;;;2.05;29.37
70437;BME280;57877;39.750;-104.894;2023-02-13T04:22:11;83622.86;;;1.88;29.89
70437;BME280;57877;39.750;-104.894;2023-02-13T04:24:36;83626.62;;;1.39;30.65
70437;BME280;57877;39.750;-104.894;2023-02-13T04:27:01;83615.95;;;2.03;29.65
70437;BME280;57877;39.750;-104.894;2023-02-13T04:29:26;83617.30;;;1.36;31.10
70437;BME280;57877;39.750;-104.894;2023-02-13T04:31:51;83617.60;;;1.52;31.22
70437;BME280;57877;39.750;-104.894;2023-02-13T04:34:17;83617.66;;;0.50;32.69
70437;BME280;57877;39.750;-104.894;2023-02-13T04:36:41;83616.02;;;2.07;30.86
70437;BME280;57877;39.750;-104.894;2023-02-13T04:39:07;83613.39;;;1.72;30.81
70437;BME280;57877;39.750;-104.894;2023-02-13T04:41:32;83614.40;;;2.10;30.33
70437;BME280;57877;39.750;-104.894;2023-02-13T04:43:57;83612.87;;;1.89;30.92
70437;BME280;57877;39.750;-104.894;2023-02-13T04:46:22;83615.63;;;1.41;31.33
70437;BME280;57877;39.750;-104.894;2023-02-13T04:48:47;83620.99;;;1.34;32.18
70437;BME280;57877;39.750;-104.894;2023-02-13T04:51:12;83622.14;;;1.43;31.77
70437;BME280;57877;39.750;-104.894;2023-02-13T04:53:37;83622.44;;;1.52;31.75
70437;BME280;57877;39.750;-104.894;2023-02-13T04:56:02;83621.07;;;0.83;33.11
70437;BME280;57877;39.750;-104.894;2023-02-13T04:58:27;83620.21;;;0.90;33.12
70437;BME280;57877;39.750;-104.894;2023-02-13T05:00:52;83614.91;;;1.51;32.31
70437;BME280;57877;39.750;-104.894;2023-02-13T05:03:18;83610.30;;;0.93;33.14
70437;BME280;57877;39.750;-104.894;2023-02-13T05:05:43;83606.99;;;0.91;33.21
70437;BME280;57877;39.750;-104.894;2023-02-13T05:08:08;83602.53;;;1.39;32.78
70437;BME280;57877;39.750;-104.894;2023-02-13T05:10:33;83603.33;;;1.19;32.99
70437;BME280;57877;39.750;-104.894;2023-02-13T05:12:58;83601.95;;;1.14;33.18
70437;BME280;57877;39.750;-104.894;2023-02-13T05:15:23;83607.72;;;0.84;33.74
70437;BME280;57877;39.750;-104.894;2023-02-13T05:17:48;83605.11;;;1.18;33.18
70437;BME280;57877;39.750;-104.894;2023-02-13T05:20:14;83604.01;;;1.19;33.21
70437;BME280;57877;39.750;-104.894;2023-02-13T05:22:43;83602.65;;;0.93;33.51
70437;BME280;57877;39.750;-104.894;2023-02-13T05:25:03;83602.62;;;1.59;32.65
70437;BME280;57877;39.750;-104.894;2023-02-13T05:27:28;83603.96;;;1.34;32.41
70437;BME280;57877;39.750;-104.894;2023-02-13T05:29:53;83606.43;;;1.06;32.78
70437;BME280;57877;39.750;-104.894;2023-02-13T05:32:18;83605.84;;;0.36;34.05
70437;BME280;57877;39.750;-104.894;2023-02-13T05:34:44;83606.68;;;0.61;34.21
70437;BME280;57877;39.750;-104.894;2023-02-13T05:37:09;83611.62;;;1.31;33.14
70437;BME280;57877;39.750;-104.894;2023-02-13T05:39:34;83607.57;;;1.30;32.79
70437;BME280;57877;39.750;-104.894;2023-02-13T05:41:59;83611.68;;;1.22;32.99
70437;BME280;57877;39.750;-104.894;2023-02-13T05:44:24;83610.74;;;1.84;31.83
70437;BME280;57877;39.750;-104.894;2023-02-13T05:46:49;83613.10;;;2.09;31.52
70437;BME280;57877;39.750;-104.894;2023-02-13T05:49:15;83616.12;;;2.23;31.29
70437;BME280;57877;39.750;-104.894;2023-02-13T05:51:39;83618.16;;;2.40;31.13
70437;BME280;57877;39.750;-104.894;2023-02-13T05:54:04;83617.53;;;1.89;31.12
70437;BME280;57877;39.750;-104.894;2023-02-13T05:56:29;83613.88;;;1.73;31.97
70437;BME280;57877;39.750;-104.894;2023-02-13T05:58:55;83609.98;;;1.80;31.86
70437;BME280;57877;39.750;-104.894;2023-02-13T06:01:20;83607.35;;;1.63;32.20
70437;BME280;57877;39.750;-104.894;2023-02-13T06:03:45;83605.93;;;1.96;31.87
70437;BME280;57877;39.750;-104.894;2023-02-13T06:06:09;83605.72;;;1.62;32.39
70437;BME280;57877;39.750;-104.894;2023-02-13T06:08:35;83606.23;;;1.36;32.63
70437;BME280;57877;39.750;-104.894;2023-02-13T06:11:00;83606.34;;;1.09;33.53
70437;BME280;57877;39.750;-104.894;2023-02-13T06:13:25;83608.55;;;1.16;33.61
70437;BME280;57877;39.750;-104.894;2023-02-13T06:15:50;83607.28;;;1.66;32.65
70437;BME280;57877;39.750;-104.894;2023-02-13T06:18:15;83609.29;;;1.51;32.68
70437;BME280;57877;39.750;-104.894;2023-02-13T06:20:40;83609.95;;;1.83;32.25
70437;BME280;57877;39.750;-104.894;2023-02-13T06:23:05;83613.87;;;1.89;31.93
70437;BME280;57877;39.750;-104.894;2023-02-13T06:25:30;83616.60;;;2.09;31.66
70437;BME280;57877;39.750;-104.894;2023-02-13T06:27:55;83619.45;;;2.15;31.48
70437;BME280;57877;39.750;-104.894;2023-02-13T06:30:21;83610.91;;;2.01;31.66
70437;BME280;57877;39.750;-104.894;2023-02-13T06:32:47;83609.86;;;1.65;32.48
70437;BME280;57877;39.750;-104.894;2023-02-13T06:35:11;83604.92;;;0.91;33.20
70437;BME280;57877;39.750;-104.894;2023-02-13T06:37:36;83600.18;;;1.11;33.25
70437;BME280;57877;39.750;-104.894;2023-02-13T06:40:01;83600.03;;;0.50;34.50
70437;BME280;57877;39.750;-104.894;2023-02-13T06:42:26;83599.42;;;1.20;33.52
70437;BME280;57877;39.750;-104.894;2023-02-13T06:44:51;83601.34;;;1.12;33.65
70437;BME280;57877;39.750;-104.894;2023-02-13T06:47:16;83600.60;;;1.65;32.87
70437;BME280;57877;39.750;-104.894;2023-02-13T06:49:41;83598.01;;;1.55;32.55
70437;BME280;57877;39.750;-104.894;2023-02-13T06:52:07;83599.99;;;1.46;32.65
70437;BME280;57877;39.750;-104.894;2023-02-13T06:54:31;83598.54;;;1.46;32.33
70437;BME280;57877;39.750;-104.894;2023-02-13T06:56:57;83599.39;;;1.51;32.26
70437;BME280;57877;39.750;-104.894;2023-02-13T06:59:22;83601.53;;;1.32;32.44
70437;BME280;57877;39.750;-104.894;2023-02-13T07:01:47;83602.69;;;1.33;32.44
70437;BME280;57877;39.750;-104.894;2023-02-13T07:04:12;83601.82;;;1.09;32.64
70437;BME280;57877;39.750;-104.894;2023-02-13T07:06:37;83598.72;;;1.34;32.73
70437;BME280;57877;39.750;-104.894;2023-02-13T07:09:03;83594.11;;;1.06;33.09
70437;BME280;57877;39.750;-104.894;2023-02-13T07:11:27;83593.79;;;1.09;33.23
70437;BME280;57877;39.750;-104.894;2023-02-13T07:13:52;83590.57;;;0.87;33.93
70437;BME280;57877;39.750;-104.894;2023-02-13T07:16:18;83586.92;;;0.74;34.15
70437;BME280;57877;39.750;-104.894;2023-02-13T07:18:42;83587.09;;;0.55;34.36
70437;BME280;57877;39.750;-104.894;2023-02-13T07:21:08;83588.71;;;1.21;33.52
70437;BME280;57877;39.750;-104.894;2023-02-13T07:23:33;83590.58;;;1.34;33.38
70437;BME280;57877;39.750;-104.894;2023-02-13T07:25:59;83591.03;;;1.39;33.14
70437;BME280;57877;39.750;-104.894;2023-02-13T07:28:23;83587.11;;;1.51;32.95
70437;BME280;57877;39.750;-104.894;2023-02-13T07:30:48;83588.67;;;1.41;32.93
70437;BME280;57877;39.750;-104.894;2023-02-13T07:33:13;83584.94;;;1.40;32.73
70437;BME280;57877;39.750;-104.894;2023-02-13T07:35:38;83585.97;;;1.33;32.74
70437;BME280;57877;39.750;-104.894;2023-02-13T07:38:03;83580.90;;;1.23;32.83
70437;BME280;57877;39.750;-104.894;2023-02-13T07:40:28;83580.38;;;1.11;32.99
70437;BME280;57877;39.750;-104.894;2023-02-13T07:42:53;83577.51;;;1.37;32.95
70437;BME280;57877;39.750;-104.894;2023-02-13T07:45:18;83575.58;;;1.32;33.00
70437;BME280;57877;39.750;-104.894;2023-02-13T07:47:44;83575.28;;;0.95;33.21
70437;BME280;57877;39.750;-104.894;2023-02-13T07:50:10;83577.67;;;1.24;33.15
70437;BME280;57877;39.750;-104.894;2023-02-13T07:52:34;83580.00;;;0.90;33.14
70437;BME280;57877;39.750;-104.894;2023-02-13T07:54:59;83580.15;;;1.12;33.27
70437;BME280;57877;39.750;-104.894;2023-02-13T07:57:24;83579.22;;;0.84;33.38
70437;BME280;57877;39.750;-104.894;2023-02-13T07:59:49;83574.21;;;0.61;33.66
70437;BME280;57877;39.750;-104.894;2023-02-13T08:02:15;83573.25;;;0.74;33.81
70437;BME280;57877;39.750;-104.894;2023-02-13T08:04:39;83573.85;;;0.97;33.53
70437;BME280;57877;39.750;-104.894;2023-02-13T08:07:04;83570.69;;;1.01;33.31
70437;BME280;57877;39.750;-104.894;2023-02-13T08:09:30;83569.73;;;1.02;33.16
70437;BME280;57877;39.750;-104.894;2023-02-13T08:11:54;83569.60;;;0.66;33.27
70437;BME280;57877;39.750;-104.894;2023-02-13T08:14:20;83567.01;;;0.80;33.23
70437;BME280;57877;39.750;-104.894;2023-02-13T08:16:45;83565.84;;;0.81;33.35
70437;BME280;57877;39.750;-104.894;2023-02-13T08:19:10;83564.53;;;0.71;33.34
70437;BME280;57877;39.750;-104.894;2023-02-13T08:21:35;83564.21;;;0.67;33.29
70437;BME280;57877;39.750;-104.894;2023-02-13T08:24:00;83565.19;;;0.84;33.46
70437;BME280;57877;39.750;-104.894;2023-02-13T08:26:26;83560.14;;;0.46;33.44
70437;BME280;57877;39.750;-104.894;2023-02-13T08:28:50;83556.42;;;0.64;33.66
70437;BME280;57877;39.750;-104.894;2023-02-13T08:31:16;83553.28;;;0.25;33.81
70437;BME280;57877;39.750;-104.894;2023-02-13T08:33:41;83549.41;;;-0.00;33.87
70437;BME280;57877;39.750;-104.894;2023-02-13T08:36:07;83546.01;;;0.13;34.05
70437;BME280;57877;39.750;-104.894;2023-02-13T08:38:31;83545.78;;;-0.14;34.51
70437;BME280;57877;39.750;-104.894;2023-02-13T08:40:56;83548.44;;;-0.13;34.83
70437;BME280;57877;39.750;-104.894;2023-02-13T08:43:21;83547.08;;;-0.05;35.21
70437;BME280;57877;39.750;-104.894;2023-02-13T08:45:46;83543.62;;;-0.37;35.65
70437;BME280;57877;39.750;-104.894;2023-02-13T08:48:12;83540.02;;;-0.67;35.29
70437;BME280;57877;39.750;-104.894;2023-02-13T08:50:37;83536.42;;;0.02;34.85
70437;BME280;57877;39.750;-104.894;2023-02-13T08:53:02;83534.81;;;0.05;34.89
70437;BME280;57877;39.750;-104.894;2023-02-13T08:55:28;83533.91;;;-0.20;34.64
70437;BME280;57877;39.750;-104.894;2023-02-13T08:57:52;83530.72;;;0.02;34.56
70437;BME280;57877;39.750;-104.894;2023-02-13T09:00:18;83530.94;;;-0.57;34.89
70437;BME280;57877;39.750;-104.894;2023-02-13T09:02:43;83527.82;;;0.08;34.66
70437;BME280;57877;39.750;-104.894;2023-02-13T09:05:08;83523.54;;;-0.15;34.57
70437;BME280;57877;39.750;-104.894;2023-02-13T09:07:33;83518.64;;;0.17;34.58
70437;BME280;57877;39.750;-104.894;2023-02-13T09:09:58;83512.05;;;-0.15;34.37
70437;BME280;57877;39.750;-104.894;2023-02-13T09:12:23;83508.24;;;0.19;34.22
70437;BME280;57877;39.750;-104.894;2023-02-13T09:14:48;83505.58;;;-0.31;34.56
70437;BME280;57877;39.750;-104.894;2023-02-13T09:17:14;83500.62;;;-0.47;34.75
70437;BME280;57877;39.750;-104.894;2023-02-13T09:19:39;83497.28;;;-0.44;34.62
70437;BME280;57877;39.750;-104.894;2023-02-13T09:22:04;83495.54;;;0.19;34.04
70437;BME280;57877;39.750;-104.894;2023-02-13T09:24:29;83492.79;;;-0.17;34.13
70437;BME280;57877;39.750;-104.894;2023-02-13T09:26:54;83488.56;;;-0.23;34.62
70437;BME280;57877;39.750;-104.894;2023-02-13T09:29:19;83485.23;;;-0.57;34.75
70437;BME280;57877;39.750;-104.894;2023-02-13T09:31:44;83481.63;;;-0.12;34.85
70437;BME280;57877;39.750;-104.894;2023-02-13T09:34:09;83479.79;;;-0.43;34.81
70437;BME280;57877;39.750;-104.894;2023-02-13T09:36:35;83479.63;;;-0.24;34.79
70437;BME280;57877;39.750;-104.894;2023-02-13T09:39:00;83472.67;;;-0.39;34.73
70437;BME280;57877;39.750;-104.894;2023-02-13T09:41:27;83471.56;;;-0.21;34.46
70437;BME280;57877;39.750;-104.894;2023-02-13T09:43:53;83469.13;;;-0.06;34.12
70437;BME280;57877;39.750;-104.894;2023-02-13T09:46:17;83466.41;;;-0.01;33.77
70437;BME280;57877;39.750;-104.894;2023-02-13T09:48:42;83465.33;;;0.03;33.54
70437;BME280;57877;39.750;-104.894;2023-02-13T09:51:05;83461.78;;;-0.22;33.87
70437;BME280;57877;39.750;-104.894;2023-02-13T09:53:31;83457.55;;;-0.25;34.19
70437;BME280;57877;39.750;-104.894;2023-02-13T09:56:04;83451.83;;;-0.61;34.41
70437;BME280;57877;39.750;-104.894;2023-02-13T09:58:32;83448.31;;;-0.31;34.30
70437;BME280;57877;39.750;-104.894;2023-02-13T10:00:50;83441.10;;;-0.27;34.12
70437;BME280;57877;39.750;-104.894;2023-02-13T10:03:19;83436.83;;;-0.40;34.29
70437;BME280;57877;39.750;-104.894;2023-02-13T10:05:44;83433.55;;;-0.24;34.22
70437;BME280;57877;39.750;-104.894;2023-02-13T10:08:07;83428.88;;;-0.28;33.90
70437;BME280;57877;39.750;-104.894;2023-02-13T10:10:33;83422.81;;;0.13;33.65
70437;BME280;57877;39.750;-104.894;2023-02-13T10:12:59;83421.41;;;-0.13;33.91
70437;BME280;57877;39.750;-104.894;2023-02-13T10:15:22;83419.38;;;-0.11;33.79
70437;BME280;57877;39.750;-104.894;2023-02-13T10:17:44;83419.52;;;0.03;33.50
70437;BME280;57877;39.750;-104.894;2023-02-13T10:20:16;83413.15;;;-0.18;33.62
70437;BME280;57877;39.750;-104.894;2023-02-13T10:22:37;83411.71;;;0.05;33.57
70437;BME280;57877;39.750;-104.894;2023-02-13T10:25:02;83410.79;;;-0.17;33.14
70437;BME280;57877;39.750;-104.894;2023-02-13T10:27:24;83406.46;;;-0.15;32.48
70437;BME280;57877;39.750;-104.894;2023-02-13T10:29:51;83406.91;;;0.02;32.34
70437;BME280;57877;39.750;-104.894;2023-02-13T10:32:17;83403.59;;;0.28;32.26
70437;BME280;57877;39.750;-104.894;2023-02-13T10:34:41;83406.97;;;-0.27;32.83
70437;BME280;57877;39.750;-104.894;2023-02-13T10:37:10;83401.52;;;-0.09;32.55
70437;BME280;57877;39.750;-104.894;2023-02-13T10:39:30;83401.86;;;-0.32;33.07
70437;BME280;57877;39.750;-104.894;2023-02-13T10:41:54;83398.23;;;-0.45;32.36
70437;BME280;57877;39.750;-104.894;2023-02-13T10:44:29;83396.96;;;-0.02;32.20
70437;BME280;57877;39.750;-104.894;2023-02-13T10:46:53;83393.22;;;-0.25;32.53
70437;BME280;57877;39.750;-104.894;2023-02-13T10:51:41;83383.46;;;-0.18;31.75
70437;BME280;57877;39.750;-104.894;2023-02-13T10:54:13;83378.06;;;-0.48;31.78
70437;BME280;57877;39.750;-104.894;2023-02-13T10:56:28;83369.25;;;-0.00;31.21
70437;BME280;57877;39.750;-104.894;2023-02-13T10:58:58;83366.57;;;0.55;30.42
70437;BME280;57877;39.750;-104.894;2023-02-13T11:01:18;83366.10;;;-0.31;31.28
70437;BME280;57877;39.750;-104.894;2023-02-13T11:03:39;83365.88;;;0.37;30.61
70437;BME280;57877;39.750;-104.894;2023-02-13T11:06:06;83368.56;;;-0.61;31.83
70437;BME280;57877;39.750;-104.894;2023-02-13T11:08:33;83360.39;;;-0.11;31.28
70437;BME280;57877;39.750;-104.894;2023-02-13T11:10:54;83353.86;;;-0.36;31.52
70437;BME280;57877;39.750;-104.894;2023-02-13T11:13:21;83346.27;;;-0.19;31.06
70437;BME280;57877;39.750;-104.894;2023-02-13T11:18:18;83337.76;;;-0.12;31.35
70437;BME280;57877;39.750;-104.894;2023-02-13T11:20:37;83332.74;;;-0.06;31.18
70437;BME280;57877;39.750;-104.894;2023-02-13T11:25:27;83329.13;;;-0.36;30.77
70437;BME280;57877;39.750;-104.894;2023-02-13T11:27:53;83325.92;;;0.36;30.35
70437;BME280;57877;39.750;-104.894;2023-02-13T11:32:40;83323.05;;;0.45;29.79
70437;BME280;57877;39.750;-104.894;2023-02-13T11:37:31;83321.79;;;0.29;29.58
70437;BME280;57877;39.750;-104.894;2023-02-13T11:39:57;83317.76;;;0.40;29.63
70437;BME280;57877;39.750;-104.894;2023-02-13T11:42:25;83314.81;;;0.09;29.89
70437;BME280;57877;39.750;-104.894;2023-02-13T11:44:50;83315.54;;;0.06;29.89
70437;BME280;57877;39.750;-104.894;2023-02-13T11:47:11;83312.61;;;-0.14;30.30
70437;BME280;57877;39.750;-104.894;2023-02-13T11:49:37;83312.11;;;-0.12;29.96
70437;BME280;57877;39.750;-104.894;2023-02-13T11:52:03;83307.89;;;-0.26;30.08
70437;BME280;57877;39.750;-104.894;2023-02-13T11:54:30;83303.07;;;0.03;30.46
70437;BME280;57877;39.750;-104.894;2023-02-13T11:56:53;83301.61;;;0.20;29.97
70437;BME280;57877;39.750;-104.894;2023-02-13T11:59:17;83296.55;;;-0.53;31.05
70437;BME280;57877;39.750;-104.894;2023-02-13T12:01:42;83295.53;;;-1.12;31.90
70437;BME280;57877;39.750;-104.894;2023-02-13T12:04:14;83293.08;;;-1.31;31.98
70437;BME280;57877;39.750;-104.894;2023-02-13T12:06:33;83288.31;;;-0.71;31.53
70437;BME280;57877;39.750;-104.894;2023-02-13T12:08:57;83283.27;;;-0.20;30.64
70437;BME280;57877;39.750;-104.894;2023-02-13T12:11:27;83277.91;;;-0.22;30.66
70437;BME280;57877;39.750;-104.894;2023-02-13T12:13:48;83273.94;;;-0.08;30.46
70437;BME280;57877;39.750;-104.894;2023-02-13T12:16:16;83268.74;;;-0.17;30.07
70437;BME280;57877;39.750;-104.894;2023-02-13T12:18:40;83268.50;;;0.44;29.58
70437;BME280;57877;39.750;-104.894;2023-02-13T12:21:22;83263.51;;;0.74;29.19
70437;BME280;57877;39.750;-104.894;2023-02-13T12:23:36;83261.62;;;-0.23;30.15
70437;BME280;57877;39.750;-104.894;2023-02-13T12:26:04;83260.86;;;0.35;29.72
70437;BME280;57877;39.750;-104.894;2023-02-13T12:28:25;83259.36;;;0.30;29.43
70437;BME280;57877;39.750;-104.894;2023-02-13T12:30:54;83255.57;;;0.29;29.23
70437;BME280;57877;39.750;-104.894;2023-02-13T12:33:18;83256.28;;;-0.50;29.98
70437;BME280;57877;39.750;-104.894;2023-02-13T12:35:40;83254.14;;;-0.67;30.39
70437;BME280;57877;39.750;-104.894;2023-02-13T12:38:03;83253.86;;;-0.70;30.72
70437;BME280;57877;39.750;-104.894;2023-02-13T12:40:31;83249.60;;;-1.25;31.19
70437;BME280;57877;39.750;-104.894;2023-02-13T12:42:54;83252.75;;;-0.94;31.16
70437;BME280;57877;39.750;-104.894;2023-02-13T12:45:25;83252.17;;;-0.79;30.65
70437;BME280;57877;39.750;-104.894;2023-02-13T12:47:47;83250.80;;;-0.57;30.35